Time;durP1;ratioP1;P1;durP2;ratioP2;P2;SDS_P1;SDS_P2;PMS_P1;PMS_P2;Temp;Humidity;BMP_temperature;BMP_pressure;BME280_temperature;BME280_humidity;BME280_pressure;Samples;Min_cycle;Max_cycle;Signal;HPM_P1;HPM_P2
2023/07/06 00:00:14;;;;;;;23.27;12.85;;;;;;;;;;4992983;28;20169;-78
2023/07/06 00:02:41;;;;;;;15.25;12.07;;;;;;;;;;5013653;28;20158;-78
2023/07/06 00:05:08;;;;;;;24.02;13.60;;;;;;;;;;5007193;28;20073;-79
2023/07/06 00:07:34;;;;;;;16.67;12.40;;;;;;;;;;5001536;28;20501;-79
2023/07/06 00:10:00;;;;;;;15.07;13.50;;;;;;;;;;4999193;28;20049;-78
2023/07/06 00:12:29;;;;;;;14.45;12.98;;;;;;;;;;4994900;28;20561;-78
2023/07/06 00:14:55;;;;;;;19.13;13.63;;;;;;;;;;4994671;28;20508;-78
2023/07/06 00:17:21;;;;;;;18.92;14.45;;;;;;;;;;4994389;28;20030;-77
2023/07/06 00:19:48;;;;;;;17.40;14.57;;;;;;;;;;4994197;28;20121;-77
2023/07/06 00:22:14;;;;;;;19.15;15.45;;;;;;;;;;4994004;28;20382;-78
2023/07/06 00:24:42;;;;;;;26.58;14.50;;;;;;;;;;4994143;28;20041;-77
2023/07/06 00:27:08;;;;;;;30.40;16.60;;;;;;;;;;4994137;28;20034;-78
2023/07/06 00:29:35;;;;;;;16.98;14.73;;;;;;;;;;4994319;28;20555;-77
2023/07/06 00:32:15;;;;;;;20.67;13.95;;;;;;;;;;4992340;28;20143;-76
2023/07/06 00:34:43;;;;;;;20.60;13.25;;;;;;;;;;4978795;28;20038;-77
2023/07/06 00:37:10;;;;;;;23.10;13.20;;;;;;;;;;4994205;28;20046;-78
2023/07/06 00:39:36;;;;;;;21.73;13.80;;;;;;;;;;4992803;28;20041;-78
2023/07/06 00:42:05;;;;;;;19.15;13.48;;;;;;;;;;4992374;28;20405;-78
2023/07/06 00:44:47;;;;;;;15.25;13.32;;;;;;;;;;4994041;28;20117;-78
2023/07/06 00:47:13;;;;;;;16.77;13.18;;;;;;;;;;4993939;28;20413;-77
2023/07/06 00:49:39;;;;;;;15.57;13.43;;;;;;;;;;4993643;28;20034;-77
2023/07/06 00:52:06;;;;;;;21.63;14.77;;;;;;;;;;4991802;28;20456;-77
2023/07/06 00:54:35;;;;;;;15.43;13.63;;;;;;;;;;4976602;28;20026;-77
2023/07/06 00:57:02;;;;;;;30.48;15.02;;;;;;;;;;4992619;28;20035;-77
2023/07/06 00:59:29;;;;;;;16.05;14.35;;;;;;;;;;4976749;28;20034;-78
2023/07/06 01:01:55;;;;;;;19.55;14.82;;;;;;;;;;4975965;28;20034;-77
2023/07/06 01:04:21;;;;;;;18.73;14.45;;;;;;;;;;4993627;28;20042;-78
2023/07/06 01:06:49;;;;;;;18.27;12.93;;;;;;;;;;4975980;28;20041;-77
2023/07/06 01:09:15;;;;;;;19.88;14.40;;;;;;;;;;4993509;28;20038;-78
2023/07/06 01:11:42;;;;;;;20.75;13.48;;;;;;;;;;4992576;28;20097;-77
2023/07/06 01:14:12;;;;;;;17.35;14.63;;;;;;;;;;4997194;28;20062;-77
2023/07/06 01:16:42;;;;;;;18.85;13.90;;;;;;;;;;4996794;28;20078;-77
2023/07/06 01:19:27;;;;;;;20.25;13.10;;;;;;;;;;4997099;28;20547;-78
2023/07/06 01:21:57;;;;;;;18.23;13.45;;;;;;;;;;4995322;28;20116;-76
2023/07/06 01:24:26;;;;;;;22.40;13.93;;;;;;;;;;4994257;28;20038;-78
2023/07/06 01:27:10;;;;;;;21.15;13.90;;;;;;;;;;4975922;28;20038;-78
2023/07/06 01:29:36;;;;;;;21.77;13.77;;;;;;;;;;4992078;28;20038;-78
2023/07/06 01:32:06;;;;;;;18.83;13.63;;;;;;;;;;4992689;28;20137;-77
2023/07/06 01:34:38;;;;;;;18.73;13.43;;;;;;;;;;4991657;28;20034;-77
2023/07/06 01:37:14;;;;;;;15.55;12.98;;;;;;;;;;4991374;28;20034;-78
2023/07/06 01:39:41;;;;;;;19.35;12.60;;;;;;;;;;4992866;28;20038;-79
2023/07/06 01:42:07;;;;;;;15.10;12.38;;;;;;;;;;4974908;28;20041;-78
2023/07/06 01:44:33;;;;;;;16.42;12.48;;;;;;;;;;4993118;28;20505;-77
2023/07/06 01:46:59;;;;;;;14.77;11.90;;;;;;;;;;4991561;28;20038;-77
2023/07/06 01:49:26;;;;;;;14.43;12.13;;;;;;;;;;4994276;28;20031;-78
2023/07/06 01:51:52;;;;;;;15.18;11.30;;;;;;;;;;4992394;28;20406;-76
2023/07/06 01:54:20;;;;;;;13.65;12.25;;;;;;;;;;4993828;28;20031;-77
2023/07/06 01:56:48;;;;;;;16.58;11.80;;;;;;;;;;4960666;28;20646;-78
2023/07/06 01:59:17;;;;;;;13.77;11.90;;;;;;;;;;4976591;28;20513;-78
2023/07/06 02:01:45;;;;;;;14.90;12.32;;;;;;;;;;4975515;28;20053;-78
2023/07/06 02:04:11;;;;;;;19.10;12.48;;;;;;;;;;4974851;28;20054;-79
2023/07/06 02:06:37;;;;;;;14.63;11.38;;;;;;;;;;4991382;28;20046;-76
2023/07/06 02:09:04;;;;;;;12.77;11.48;;;;;;;;;;4991423;28;20038;-77
2023/07/06 02:11:30;;;;;;;14.95;11.75;;;;;;;;;;4991084;28;20058;-77
2023/07/06 02:13:56;;;;;;;14.30;11.85;;;;;;;;;;4992031;28;20034;-76
2023/07/06 02:16:22;;;;;;;12.80;11.52;;;;;;;;;;4995488;28;20038;-78
2023/07/06 02:18:49;;;;;;;13.27;11.95;;;;;;;;;;4995492;28;20062;-78
2023/07/06 02:21:15;;;;;;;13.55;12.00;;;;;;;;;;4991314;28;20042;-79
2023/07/06 02:23:41;;;;;;;16.42;12.27;;;;;;;;;;4991940;28;20036;-76
2023/07/06 02:26:07;;;;;;;12.48;11.38;;;;;;;;;;4992171;28;20121;-78
2023/07/06 02:28:35;;;;;;;15.43;11.77;;;;;;;;;;4991718;28;20037;-78
2023/07/06 02:31:04;;;;;;;15.25;12.93;;;;;;;;;;4991546;28;20497;-77
2023/07/06 02:33:34;;;;;;;14.35;12.95;;;;;;;;;;4990594;28;20061;-78
2023/07/06 02:36:00;;;;;;;13.32;12.02;;;;;;;;;;4990473;28;20142;-78
2023/07/06 02:38:29;;;;;;;14.77;12.27;;;;;;;;;;4990360;28;20141;-77
2023/07/06 02:40:55;;;;;;;15.50;11.97;;;;;;;;;;4991395;28;20088;-77
2023/07/06 02:43:21;;;;;;;14.82;11.65;;;;;;;;;;4991742;28;20137;-78
2023/07/06 02:45:47;;;;;;;14.82;11.73;;;;;;;;;;4991995;28;20421;-77
2023/07/06 02:48:14;;;;;;;13.77;12.20;;;;;;;;;;4991739;28;20108;-78
2023/07/06 02:50:40;;;;;;;17.13;11.80;;;;;;;;;;4991967;28;20050;-78
2023/07/06 02:53:06;;;;;;;17.73;12.30;;;;;;;;;;5005654;28;20038;-77
2023/07/06 02:55:32;;;;;;;12.98;11.60;;;;;;;;;;5014846;28;20034;-79
2023/07/06 02:57:58;;;;;;;19.13;12.57;;;;;;;;;;4979926;28;20034;-78
2023/07/06 03:00:25;;;;;;;17.02;12.27;;;;;;;;;;4977843;28;20120;-78
2023/07/06 03:02:51;;;;;;;13.90;11.93;;;;;;;;;;4990467;28;20038;-77
2023/07/06 03:05:23;;;;;;;14.93;11.90;;;;;;;;;;4990162;28;20121;-77
2023/07/06 03:07:54;;;;;;;14.35;12.20;;;;;;;;;;4991468;28;20547;-78
2023/07/06 03:10:22;;;;;;;15.45;13.05;;;;;;;;;;4992599;28;20038;-79
2023/07/06 03:12:48;;;;;;;25.17;13.68;;;;;;;;;;4991891;28;20038;-79
2023/07/06 03:15:15;;;;;;;17.88;13.23;;;;;;;;;;4995054;28;20042;-78
2023/07/06 03:17:42;;;;;;;16.95;12.85;;;;;;;;;;4993719;28;20087;-77
2023/07/06 03:20:14;;;;;;;15.40;12.88;;;;;;;;;;4994886;28;20197;-76
2023/07/06 03:22:41;;;;;;;16.77;12.27;;;;;;;;;;4993821;28;20045;-77
2023/07/06 03:25:09;;;;;;;17.83;12.57;;;;;;;;;;4974166;28;20034;-77
2023/07/06 03:27:36;;;;;;;15.95;12.65;;;;;;;;;;4989890;28;20116;-76
2023/07/06 03:30:07;;;;;;;17.33;13.00;;;;;;;;;;4991014;28;20038;-76
2023/07/06 03:32:37;;;;;;;15.27;13.15;;;;;;;;;;4957712;28;20038;-79
2023/07/06 03:35:04;;;;;;;20.90;13.90;;;;;;;;;;4973749;28;20092;-78
2023/07/06 03:37:30;;;;;;;21.98;12.93;;;;;;;;;;4991491;28;20061;-78
2023/07/06 03:39:56;;;;;;;15.50;13.07;;;;;;;;;;4991090;28;20517;-79
2023/07/06 03:42:22;;;;;;;25.27;13.80;;;;;;;;;;4998164;28;20112;-79
2023/07/06 03:44:48;;;;;;;17.83;13.82;;;;;;;;;;4996418;28;20050;-78
2023/07/06 03:47:14;;;;;;;18.58;13.30;;;;;;;;;;4995927;28;20073;-77
2023/07/06 03:49:40;;;;;;;18.50;12.40;;;;;;;;;;4997518;28;20034;-78
2023/07/06 03:52:07;;;;;;;14.43;12.98;;;;;;;;;;4995559;28;20084;-79
2023/07/06 03:54:36;;;;;;;20.90;13.07;;;;;;;;;;4997425;28;20030;-78
2023/07/06 03:57:05;;;;;;;18.23;13.13;;;;;;;;;;4997353;28;20045;-78
2023/07/06 03:59:33;;;;;;;20.67;12.23;;;;;;;;;;4997708;28;20039;-80
2023/07/06 04:02:00;;;;;;;15.27;11.93;;;;;;;;;;4997161;28;20127;-78
2023/07/06 04:04:28;;;;;;;26.17;13.02;;;;;;;;;;4996412;28;20125;-78
2023/07/06 04:06:55;;;;;;;16.58;11.57;;;;;;;;;;4996236;28;20548;-79
2023/07/06 04:09:21;;;;;;;14.75;12.70;;;;;;;;;;4997177;28;20121;-80
2023/07/06 04:11:47;;;;;;;17.38;13.65;;;;;;;;;;4997268;28;20050;-77
2023/07/06 04:14:13;;;;;;;16.98;13.02;;;;;;;;;;4997132;28;20041;-79
2023/07/06 04:16:40;;;;;;;14.80;13.25;;;;;;;;;;4997716;28;20046;-78
2023/07/06 04:19:06;;;;;;;16.88;13.63;;;;;;;;;;5000177;28;20065;-78
2023/07/06 04:21:32;;;;;;;17.60;14.18;;;;;;;;;;5007541;28;20041;-78
2023/07/06 04:23:59;;;;;;;19.85;14.35;;;;;;;;;;5009956;28;20447;-78
2023/07/06 04:26:25;;;;;;;23.70;14.20;;;;;;;;;;5002254;28;20038;-79
2023/07/06 04:28:51;;;;;;;21.80;13.18;;;;;;;;;;4995975;28;20030;-78
2023/07/06 04:31:17;;;;;;;23.23;12.60;;;;;;;;;;4995553;28;20052;-77
2023/07/06 04:33:45;;;;;;;13.60;11.95;;;;;;;;;;4996860;28;20121;-79
2023/07/06 04:36:12;;;;;;;14.90;12.48;;;;;;;;;;4995597;28;20065;-79
2023/07/06 04:38:38;;;;;;;14.98;11.95;;;;;;;;;;4996962;28;20069;-78
2023/07/06 04:41:04;;;;;;;16.38;12.55;;;;;;;;;;4996647;28;20579;-78
2023/07/06 04:43:30;;;;;;;16.98;12.20;;;;;;;;;;4996678;28;20041;-79
2023/07/06 04:45:56;;;;;;;15.05;12.02;;;;;;;;;;4996693;28;20088;-78
2023/07/06 04:48:26;;;;;;;16.48;12.52;;;;;;;;;;4996319;28;20038;-77
2023/07/06 04:50:52;;;;;;;11.95;10.75;;;;;;;;;;4995407;28;20046;-79
2023/07/06 04:53:19;;;;;;;11.10;9.90;;;;;;;;;;4993250;28;20064;-79
2023/07/06 04:55:45;;;;;;;17.52;10.73;;;;;;;;;;4993600;28;20513;-78
2023/07/06 04:58:11;;;;;;;12.35;10.93;;;;;;;;;;4992246;28;20648;-78
2023/07/06 05:00:39;;;;;;;17.55;11.77;;;;;;;;;;4992482;28;20113;-78
2023/07/06 05:03:09;;;;;;;11.18;10.13;;;;;;;;;;4993406;28;20358;-78
2023/07/06 05:05:42;;;;;;;11.40;9.48;;;;;;;;;;4993869;28;20030;-79
2023/07/06 05:08:09;;;;;;;19.05;10.20;;;;;;;;;;4991896;28;20034;-77
2023/07/06 05:10:35;;;;;;;15.13;10.18;;;;;;;;;;4992239;28;20429;-79
2023/07/06 05:13:02;;;;;;;11.20;10.10;;;;;;;;;;4993020;28;20413;-76
2023/07/06 05:15:28;;;;;;;10.20;9.20;;;;;;;;;;4993283;28;20457;-78
2023/07/06 05:17:55;;;;;;;11.43;10.27;;;;;;;;;;4993194;28;20049;-77
2023/07/06 05:20:22;;;;;;;10.23;9.23;;;;;;;;;;4992975;28;20065;-77
2023/07/06 05:22:48;;;;;;;10.55;9.55;;;;;;;;;;4992944;28;20026;-78
2023/07/06 05:25:15;;;;;;;10.65;9.00;;;;;;;;;;4991539;28;20042;-79
2023/07/06 05:27:41;;;;;;;14.18;8.90;;;;;;;;;;4993124;28;20041;-78
2023/07/06 05:30:07;;;;;;;12.55;8.85;;;;;;;;;;4992923;28;20042;-77
2023/07/06 05:32:33;;;;;;;14.15;9.77;;;;;;;;;;4993150;28;20049;-77
2023/07/06 05:34:59;;;;;;;9.82;8.55;;;;;;;;;;4993316;28;20509;-77
2023/07/06 05:37:25;;;;;;;16.10;9.45;;;;;;;;;;4991500;28;20041;-77
2023/07/06 05:39:51;;;;;;;12.55;8.77;;;;;;;;;;4993258;28;20034;-77
2023/07/06 05:42:17;;;;;;;14.93;8.43;;;;;;;;;;4991646;28;20061;-78
2023/07/06 05:44:44;;;;;;;16.13;7.72;;;;;;;;;;5001485;28;20082;-76
2023/07/06 05:47:10;;;;;;;16.75;9.13;;;;;;;;;;5015082;28;20034;-76
2023/07/06 05:49:36;;;;;;;11.00;7.85;;;;;;;;;;4996385;28;20034;-78
2023/07/06 05:52:03;;;;;;;13.55;8.85;;;;;;;;;;4993121;28;20058;-77
2023/07/06 05:54:29;;;;;;;10.57;8.98;;;;;;;;;;4993399;28;20038;-78
2023/07/06 05:56:56;;;;;;;16.70;8.10;;;;;;;;;;4993002;28;20042;-77
2023/07/06 05:59:24;;;;;;;11.95;8.02;;;;;;;;;;4992873;28;20042;-77
2023/07/06 06:01:53;;;;;;;13.07;8.45;;;;;;;;;;4991286;28;20517;-77
2023/07/06 06:04:19;;;;;;;;;;;;;;;;;;4991221;28;20038;-77
2023/07/06 06:06:50;;;;;;;13.60;8.60;;;;;;;;;;4991267;28;19924;-77
2023/07/06 06:09:16;;;;;;;20.60;8.80;;;;;;;;;;4992187;28;20026;-78
2023/07/06 06:11:42;;;;;;;12.73;7.93;;;;;;;;;;4992176;28;20069;-77
2023/07/06 06:14:08;;;;;;;8.48;6.90;;;;;;;;;;4990713;28;20030;-79
2023/07/06 06:16:35;;;;;;;10.10;7.88;;;;;;;;;;4974890;28;20104;-78
2023/07/06 06:19:01;;;;;;;10.82;6.63;;;;;;;;;;4992184;28;20045;-77
2023/07/06 06:21:30;;;;;;;9.45;5.90;;;;;;;;;;4991989;28;20038;-77
2023/07/06 06:23:57;;;;;;;14.73;7.45;;;;;;;;;;4991909;28;20477;-78
2023/07/06 06:26:23;;;;;;;8.77;6.55;;;;;;;;;;4990455;28;20108;-78
2023/07/06 06:28:49;;;;;;;8.50;7.43;;;;;;;;;;4991802;28;20042;-79
2023/07/06 06:31:15;;;;;;;8.32;6.38;;;;;;;;;;4990491;28;20046;-77
2023/07/06 06:33:41;;;;;;;7.00;6.22;;;;;;;;;;4991931;28;20030;-79
2023/07/06 06:36:08;;;;;;;8.48;6.40;;;;;;;;;;4990215;28;20053;-79
2023/07/06 06:38:34;;;;;;;7.60;6.07;;;;;;;;;;4991494;28;20378;-78
2023/07/06 06:41:03;;;;;;;8.07;6.55;;;;;;;;;;4991693;28;20042;-78
2023/07/06 06:43:30;;;;;;;7.20;6.45;;;;;;;;;;4991252;28;20026;-79
2023/07/06 06:45:55;;;;;;;6.97;6.32;;;;;;;;;;4990338;28;20038;-78
2023/07/06 06:48:21;;;;;;;7.88;7.18;;;;;;;;;;4989933;28;20037;-77
2023/07/06 06:50:47;;;;;;;7.07;6.47;;;;;;;;;;4991387;28;20429;-78
2023/07/06 06:53:14;;;;;;;6.65;6.15;;;;;;;;;;4973435;28;20058;-78
2023/07/06 06:55:40;;;;;;;6.50;5.88;;;;;;;;;;4991460;28;20042;-78
2023/07/06 06:58:05;;;;;;;6.78;6.13;;;;;;;;;;4991284;28;20030;-79
2023/07/06 07:00:32;;;;;;;7.53;6.05;;;;;;;;;;4991382;28;20081;-79
2023/07/06 07:02:59;;;;;;;6.13;5.63;;;;;;;;;;4991371;28;20042;-79
2023/07/06 07:05:25;;;;;;;10.68;6.13;;;;;;;;;;4990056;28;20412;-78
2023/07/06 07:07:51;;;;;;;8.45;6.00;;;;;;;;;;4990002;28;20038;-79
2023/07/06 07:10:17;;;;;;;5.60;5.10;;;;;;;;;;4989611;28;20038;-78
2023/07/06 07:12:44;;;;;;;6.70;5.43;;;;;;;;;;4991726;28;20410;-79
2023/07/06 07:15:11;;;;;;;6.38;5.85;;;;;;;;;;4991038;28;20130;-77
2023/07/06 07:17:37;;;;;;;7.65;6.10;;;;;;;;;;4992521;28;20088;-78
2023/07/06 07:20:05;;;;;;;17.15;6.25;;;;;;;;;;4993154;28;20068;-78
2023/07/06 07:22:31;;;;;;;6.05;5.50;;;;;;;;;;4993797;28;20030;-80
2023/07/06 07:25:00;;;;;;;9.15;6.05;;;;;;;;;;4998478;28;20038;-80
2023/07/06 07:27:28;;;;;;;7.13;5.90;;;;;;;;;;5003351;28;20014;-78
2023/07/06 07:29:54;;;;;;;8.82;6.30;;;;;;;;;;4998931;28;20034;-78
2023/07/06 07:32:20;;;;;;;5.32;4.82;;;;;;;;;;4993546;28;20054;-77
2023/07/06 07:34:50;;;;;;;6.40;5.90;;;;;;;;;;4991303;28;20117;-78
2023/07/06 07:37:18;;;;;;;7.05;6.20;;;;;;;;;;4991042;28;20046;-78
2023/07/06 07:39:45;;;;;;;6.50;5.88;;;;;;;;;;4973538;28;20413;-78
2023/07/06 07:42:12;;;;;;;7.00;6.30;;;;;;;;;;4990333;28;20082;-80
2023/07/06 07:44:38;;;;;;;6.50;6.00;;;;;;;;;;4990679;28;20052;-78
2023/07/06 07:47:05;;;;;;;10.25;6.63;;;;;;;;;;4990679;28;20031;-77
2023/07/06 07:49:31;;;;;;;7.03;6.40;;;;;;;;;;4990532;28;20524;-78
2023/07/06 07:51:57;;;;;;;9.75;6.28;;;;;;;;;;4989085;28;20085;-78
2023/07/06 07:54:23;;;;;;;6.68;6.07;;;;;;;;;;4990823;28;20034;-79
2023/07/06 07:56:53;;;;;;;7.28;6.30;;;;;;;;;;4990760;28;20045;-77
2023/07/06 07:59:20;;;;;;;7.00;6.40;;;;;;;;;;4989537;28;20161;-79
2023/07/06 08:01:47;;;;;;;6.68;6.05;;;;;;;;;;4989745;28;20047;-78
2023/07/06 08:04:14;;;;;;;6.15;5.63;;;;;;;;;;4989368;28;20045;-77
2023/07/06 08:06:40;;;;;;;6.70;6.10;;;;;;;;;;4990804;28;20170;-78
2023/07/06 08:09:08;;;;;;;7.22;5.75;;;;;;;;;;4989310;28;20125;-80
2023/07/06 08:11:35;;;;;;;13.25;6.43;;;;;;;;;;4989226;28;20393;-78
2023/07/06 08:14:03;;;;;;;7.93;6.43;;;;;;;;;;4989534;28;20583;-77
2023/07/06 08:16:32;;;;;;;10.63;6.10;;;;;;;;;;4989220;28;20045;-79
2023/07/06 08:18:58;;;;;;;6.40;5.77;;;;;;;;;;4990848;28;20116;-78
2023/07/06 08:21:25;;;;;;;6.18;5.68;;;;;;;;;;4990475;28;20045;-78
2023/07/06 08:23:51;;;;;;;6.15;5.75;;;;;;;;;;4973452;28;20026;-78
2023/07/06 08:26:18;;;;;;;6.82;6.18;;;;;;;;;;4990347;28;20061;-78
2023/07/06 08:28:46;;;;;;;6.28;5.70;;;;;;;;;;4977356;28;20030;-79
2023/07/06 08:31:12;;;;;;;6.47;5.90;;;;;;;;;;4993097;28;20081;-78
2023/07/06 08:33:38;;;;;;;6.53;5.97;;;;;;;;;;4994909;28;20034;-78
2023/07/06 08:36:05;;;;;;;6.60;6.10;;;;;;;;;;4995238;28;20077;-78
2023/07/06 08:38:31;;;;;;;6.38;5.78;;;;;;;;;;5012208;28;20090;-78
2023/07/06 08:40:58;;;;;;;10.60;6.97;;;;;;;;;;5007445;28;20422;-78
2023/07/06 08:43:24;;;;;;;6.38;5.78;;;;;;;;;;4995267;28;20034;-78
2023/07/06 08:45:56;;;;;;;8.63;5.70;;;;;;;;;;4994689;28;20049;-79
2023/07/06 08:48:25;;;;;;;6.82;5.68;;;;;;;;;;4994148;28;20205;-76
2023/07/06 08:50:53;;;;;;;7.97;6.40;;;;;;;;;;4992971;28;20054;-79
2023/07/06 08:53:20;;;;;;;7.10;6.50;;;;;;;;;;4992181;28;20042;-78
2023/07/06 08:55:45;;;;;;;7.15;6.45;;;;;;;;;;4994094;28;20529;-77
2023/07/06 08:58:14;;;;;;;6.72;6.25;;;;;;;;;;4993746;28;20117;-78
2023/07/06 09:00:41;;;;;;;6.85;6.22;;;;;;;;;;4993797;28;20042;-78
2023/07/06 09:03:10;;;;;;;8.73;6.65;;;;;;;;;;4993478;28;20210;-77
2023/07/06 09:05:37;;;;;;;;;;;;;;;;;;4993895;28;20165;-78
2023/07/06 09:08:03;;;;;;;8.32;6.65;;;;;;;;;;4993597;28;20392;-79
2023/07/06 09:10:29;;;;;;;10.60;7.22;;;;;;;;;;4993317;28;20041;-78
2023/07/06 09:13:15;;;;;;;7.00;6.50;;;;;;;;;;4992083;28;20426;-79
2023/07/06 09:15:41;;;;;;;8.60;7.18;;;;;;;;;;4993528;28;20037;-78
2023/07/06 09:18:10;;;;;;;7.03;6.38;;;;;;;;;;4975941;28;20072;-79
2023/07/06 09:20:36;;;;;;;7.30;6.80;;;;;;;;;;4959562;28;20521;-78
2023/07/06 09:23:06;;;;;;;6.95;6.35;;;;;;;;;;4993159;28;20149;-76
2023/07/06 09:25:36;;;;;;;7.43;6.60;;;;;;;;;;4991800;28;20038;-78
2023/07/06 09:28:07;;;;;;;7.05;6.45;;;;;;;;;;4991952;28;20585;-77
2023/07/06 09:30:36;;;;;;;7.60;6.60;;;;;;;;;;4992868;28;20125;-79
2023/07/06 09:33:23;;;;;;;7.25;6.65;;;;;;;;;;4991740;28;20042;-76
2023/07/06 09:35:53;;;;;;;7.43;6.72;;;;;;;;;;4993100;28;20058;-76
2023/07/06 09:38:19;;;;;;;;;;;;;;;;;;4992440;28;20082;-79
2023/07/06 09:40:46;;;;;;;7.38;6.50;;;;;;;;;;4992903;28;19949;-78
2023/07/06 09:43:19;;;;;;;10.05;7.10;;;;;;;;;;4992725;28;20034;-79
2023/07/06 09:45:45;;;;;;;7.88;6.80;;;;;;;;;;4991742;28;20038;-78
2023/07/06 09:48:37;;;;;;;7.43;6.82;;;;;;;;;;4992849;28;20038;-79
2023/07/06 09:51:13;;;;;;;9.43;6.72;;;;;;;;;;4983293;28;20054;-78
2023/07/06 09:53:59;;;;;;;7.22;6.72;;;;;;;;;;4992449;28;20065;-78
2023/07/06 09:56:28;;;;;;;7.20;6.38;;;;;;;;;;4991257;28;20049;-78
2023/07/06 09:58:54;;;;;;;7.28;6.65;;;;;;;;;;4992721;28;20536;-79
2023/07/06 10:01:27;;;;;;;7.25;6.55;;;;;;;;;;4992688;28;20464;-78
2023/07/06 10:04:13;;;;;;;7.03;6.40;;;;;;;;;;4992695;28;20030;-79
2023/07/06 10:06:57;;;;;;;11.57;7.05;;;;;;;;;;4991345;28;20405;-78
2023/07/06 10:09:31;;;;;;;7.25;6.75;;;;;;;;;;4992071;28;20038;-79
2023/07/06 10:11:58;;;;;;;7.93;7.13;;;;;;;;;;4991313;28;20125;-78
2023/07/06 10:14:25;;;;;;;8.70;6.47;;;;;;;;;;4990649;28;20546;-79
2023/07/06 10:16:54;;;;;;;9.43;6.63;;;;;;;;;;4992465;28;20038;-79
2023/07/06 10:19:26;;;;;;;9.02;6.38;;;;;;;;;;4991969;28;20113;-79
2023/07/06 10:22:01;;;;;;;12.25;6.47;;;;;;;;;;4991601;28;20042;-78
2023/07/06 10:24:32;;;;;;;7.32;6.70;;;;;;;;;;4992853;28;20038;-78
2023/07/06 10:26:59;;;;;;;6.90;6.22;;;;;;;;;;4992073;28;20513;-79
2023/07/06 10:29:46;;;;;;;8.60;6.45;;;;;;;;;;4992563;28;20038;-79
2023/07/06 10:32:17;;;;;;;10.75;6.45;;;;;;;;;;4983886;28;20050;-78
2023/07/06 10:34:53;;;;;;;6.85;6.25;;;;;;;;;;5003083;28;20042;-77
2023/07/06 10:37:19;;;;;;;7.70;6.93;;;;;;;;;;5003686;28;20103;-79
2023/07/06 10:39:45;;;;;;;10.40;6.90;;;;;;;;;;5001269;28;20050;-78
2023/07/06 10:42:21;;;;;;;7.13;6.53;;;;;;;;;;4991144;28;20556;-78
2023/07/06 10:44:55;;;;;;;7.05;6.35;;;;;;;;;;4991886;28;20041;-78
2023/07/06 10:47:33;;;;;;;8.35;7.50;;;;;;;;;;4990358;28;20454;-79
2023/07/06 10:50:05;;;;;;;12.55;6.97;;;;;;;;;;4990404;28;20128;-79
2023/07/06 10:52:32;;;;;;;6.88;6.28;;;;;;;;;;4990009;28;20100;-78
2023/07/06 10:54:59;;;;;;;8.73;6.75;;;;;;;;;;4990358;28;20052;-79
2023/07/06 10:57:33;;;;;;;7.82;7.10;;;;;;;;;;4990044;28;20133;-78
2023/07/06 11:00:15;;;;;;;8.52;6.60;;;;;;;;;;4990495;28;20114;-79
2023/07/06 11:02:43;;;;;;;8.82;7.35;;;;;;;;;;4990463;28;20042;-77
2023/07/06 11:05:09;;;;;;;10.00;7.75;;;;;;;;;;4990162;28;20124;-78
2023/07/06 11:07:41;;;;;;;8.68;6.55;;;;;;;;;;4990983;28;20191;-78
2023/07/06 11:10:14;;;;;;;8.18;7.00;;;;;;;;;;4991297;28;20037;-79
2023/07/06 11:13:01;;;;;;;13.45;7.45;;;;;;;;;;4989655;28;20050;-80
2023/07/06 11:15:40;;;;;;;8.45;7.47;;;;;;;;;;4989954;28;20042;-79
2023/07/06 11:18:19;;;;;;;9.25;7.60;;;;;;;;;;4991061;28;20420;-78
2023/07/06 11:20:46;;;;;;;8.38;7.40;;;;;;;;;;4991227;28;20517;-77
2023/07/06 11:23:12;;;;;;;9.15;7.13;;;;;;;;;;4990006;28;20046;-78
2023/07/06 11:25:39;;;;;;;12.32;7.30;;;;;;;;;;4990556;28;20081;-78
2023/07/06 11:28:07;;;;;;;10.70;7.32;;;;;;;;;;4994197;28;20097;-78
2023/07/06 11:30:39;;;;;;;7.57;6.95;;;;;;;;;;4989612;28;20034;-79
2023/07/06 11:33:18;;;;;;;7.75;6.95;;;;;;;;;;5012180;28;20049;-78
2023/07/06 11:35:54;;;;;;;7.78;7.00;;;;;;;;;;4992337;28;20034;-79
2023/07/06 11:38:24;;;;;;;7.55;6.82;;;;;;;;;;4993903;28;20042;-78
2023/07/06 11:40:57;;;;;;;9.27;7.22;;;;;;;;;;4991489;28;20050;-78
2023/07/06 11:43:38;;;;;;;8.13;7.40;;;;;;;;;;4989727;28;20034;-78
2023/07/06 11:46:16;;;;;;;12.18;7.18;;;;;;;;;;4989916;28;20042;-80
2023/07/06 11:48:46;;;;;;;8.73;7.13;;;;;;;;;;4973573;28;20590;-77
2023/07/06 11:51:12;;;;;;;8.02;7.22;;;;;;;;;;4990897;28;20046;-78
2023/07/06 11:53:54;;;;;;;8.32;7.47;;;;;;;;;;4990262;28;20145;-79
2023/07/06 11:56:32;;;;;;;9.05;6.82;;;;;;;;;;4989895;28;20030;-78
2023/07/06 11:59:04;;;;;;;10.82;7.30;;;;;;;;;;4991024;28;20057;-78
2023/07/06 12:01:42;;;;;;;6.95;6.40;;;;;;;;;;4990913;28;20125;-78
2023/07/06 12:04:19;;;;;;;7.80;7.13;;;;;;;;;;4994882;28;20041;-78
2023/07/06 12:06:45;;;;;;;7.70;6.88;;;;;;;;;;4994257;28;20034;-77
2023/07/06 12:09:18;;;;;;;7.68;6.90;;;;;;;;;;4994964;28;20041;-78
2023/07/06 12:11:46;;;;;;;8.65;7.13;;;;;;;;;;4977363;28;20443;-78
2023/07/06 12:14:18;;;;;;;7.85;7.25;;;;;;;;;;4977656;28;20068;-79
2023/07/06 12:16:44;;;;;;;7.80;7.03;;;;;;;;;;4995790;28;20061;-79
2023/07/06 12:19:14;;;;;;;9.15;6.97;;;;;;;;;;4996981;28;20509;-79
2023/07/06 12:21:44;;;;;;;7.50;6.90;;;;;;;;;;4994657;28;20042;-77
2023/07/06 12:24:09;;;;;;;;;;;;;;;;;;4995458;28;20034;-79
2023/07/06 12:26:41;;;;;;;7.22;6.65;;;;;;;;;;4994325;28;19913;-77
2023/07/06 12:29:07;;;;;;;7.13;6.50;;;;;;;;;;4994187;28;20038;-79
2023/07/06 12:31:37;;;;;;;7.00;6.47;;;;;;;;;;4960713;28;20046;-78
2023/07/06 12:34:03;;;;;;;7.22;6.65;;;;;;;;;;4994005;28;20041;-78
2023/07/06 12:36:29;;;;;;;9.82;6.93;;;;;;;;;;4992513;28;20039;-78
2023/07/06 12:38:55;;;;;;;7.50;6.90;;;;;;;;;;4993813;28;20034;-77
2023/07/06 12:41:21;;;;;;;7.28;6.57;;;;;;;;;;4993959;28;20172;-79
2023/07/06 12:43:53;;;;;;;7.13;6.47;;;;;;;;;;4993714;28;20406;-79
2023/07/06 12:46:21;;;;;;;7.57;6.88;;;;;;;;;;4992732;28;20042;-79
2023/07/06 12:48:48;;;;;;;8.50;6.85;;;;;;;;;;4992268;28;20030;-78
2023/07/06 12:51:21;;;;;;;12.10;7.13;;;;;;;;;;4993516;28;20042;-79
2023/07/06 12:53:50;;;;;;;7.40;6.68;;;;;;;;;;4993293;28;20522;-79
2023/07/06 12:56:20;;;;;;;8.00;7.35;;;;;;;;;;4993684;28;20038;-79
2023/07/06 12:59:01;;;;;;;7.57;6.88;;;;;;;;;;4993494;28;20034;-78
2023/07/06 13:01:37;;;;;;;9.80;6.35;;;;;;;;;;4993530;28;20038;-79
2023/07/06 13:04:10;;;;;;;7.50;6.80;;;;;;;;;;4992274;28;20038;-77
2023/07/06 13:06:40;;;;;;;7.30;6.70;;;;;;;;;;4992374;28;20042;-79
2023/07/06 13:09:06;;;;;;;8.20;6.53;;;;;;;;;;4992073;28;20116;-79
2023/07/06 13:11:34;;;;;;;7.35;6.75;;;;;;;;;;4976008;28;20493;-78
2023/07/06 13:14:04;;;;;;;7.65;6.95;;;;;;;;;;4991026;28;20093;-79
2023/07/06 13:16:39;;;;;;;7.75;7.10;;;;;;;;;;4993485;28;20045;-79
2023/07/06 13:19:05;;;;;;;8.70;7.07;;;;;;;;;;4993409;28;20104;-80
2023/07/06 13:21:33;;;;;;;7.13;6.53;;;;;;;;;;4991810;28;20034;-80
2023/07/06 13:23:59;;;;;;;9.43;6.70;;;;;;;;;;4993202;28;20040;-78
2023/07/06 13:26:26;;;;;;;8.40;6.65;;;;;;;;;;4993229;28;20031;-78
2023/07/06 13:28:52;;;;;;;7.43;6.78;;;;;;;;;;4992968;28;20069;-78
2023/07/06 13:31:19;;;;;;;9.45;6.85;;;;;;;;;;4993051;28;20133;-77
2023/07/06 13:33:46;;;;;;;7.03;6.53;;;;;;;;;;4975378;28;20073;-78
2023/07/06 13:36:13;;;;;;;9.20;6.80;;;;;;;;;;4976054;28;20052;-79
2023/07/06 13:38:39;;;;;;;7.80;6.63;;;;;;;;;;4991370;28;20026;-79
2023/07/06 13:41:04;;;;;;;7.38;6.60;;;;;;;;;;4993220;28;20060;-78
2023/07/06 13:43:31;;;;;;;7.65;6.35;;;;;;;;;;4992267;28;20505;-80
2023/07/06 13:45:58;;;;;;;8.10;6.25;;;;;;;;;;4993258;28;20475;-79
2023/07/06 13:48:24;;;;;;;7.88;6.28;;;;;;;;;;4993036;28;20057;-78
2023/07/06 13:50:50;;;;;;;7.93;6.07;;;;;;;;;;4995418;28;20054;-79
2023/07/06 13:53:17;;;;;;;7.43;6.45;;;;;;;;;;5002952;28;20054;-77
2023/07/06 13:55:52;;;;;;;9.05;6.38;;;;;;;;;;5003117;28;20113;-79
2023/07/06 13:58:18;;;;;;;6.65;6.03;;;;;;;;;;4996770;28;20045;-77
2023/07/06 14:00:47;;;;;;;8.35;5.45;;;;;;;;;;4993122;28;20052;-79
2023/07/06 14:03:15;;;;;;;6.43;5.97;;;;;;;;;;4992706;28;20037;-79
2023/07/06 14:05:42;;;;;;;7.63;6.20;;;;;;;;;;4992500;28;20317;-79
2023/07/06 14:08:09;;;;;;;6.65;5.93;;;;;;;;;;4991558;28;20046;-80
2023/07/06 14:10:35;;;;;;;8.93;6.38;;;;;;;;;;4990822;28;20034;-79
2023/07/06 14:13:01;;;;;;;6.85;6.20;;;;;;;;;;4992325;28;20069;-77
2023/07/06 14:15:27;;;;;;;7.18;6.45;;;;;;;;;;4990810;28;20057;-79
2023/07/06 14:17:53;;;;;;;7.45;5.97;;;;;;;;;;4991068;28;20038;-81
2023/07/06 14:20:22;;;;;;;6.68;6.07;;;;;;;;;;4991803;28;20041;-79
2023/07/06 14:22:48;;;;;;;7.70;6.97;;;;;;;;;;5001784;28;20022;-78
2023/07/06 14:25:19;;;;;;;8.00;5.90;;;;;;;;;;5014276;28;20045;-79
2023/07/06 14:27:45;;;;;;;8.77;6.65;;;;;;;;;;4998675;28;20501;-78
2023/07/06 14:30:13;;;;;;;6.55;6.03;;;;;;;;;;4995081;28;20540;-79
2023/07/06 14:32:40;;;;;;;7.18;6.50;;;;;;;;;;4991633;28;20490;-79
2023/07/06 14:35:08;;;;;;;6.55;5.95;;;;;;;;;;4990565;28;20034;-78
2023/07/06 14:37:34;;;;;;;6.95;6.03;;;;;;;;;;4974182;28;20508;-78
2023/07/06 14:40:00;;;;;;;9.23;6.70;;;;;;;;;;4991745;28;20049;-79